Islip Terrace, New York
Current Conditions -  °F | °C
As of 1:56 AM on Thursday 18 Dec 2014 (Local Time) from KISP Reporting Station
Overcast Overcast  
Wind Chill: 34°   Ceiling: 6500
Heat Index: 41°   Visibility: 10mi
Dew Point: 29°   Wind: 13mph
Humidity: 62%   Direction: 310°NW
Pressure: 29.83"   Gusts: 24mph
Location:  40.75°N, 73.19°W
Report Text: KISP 180656Z AUTO 31011G21KT 10SM FEW039 OVC065 05/M02 A2983 RMK AO2 SLP102 T00501017
Loading
Personal Weather Stations






























Interactive Weather Map New forecast layout! Learn more

10-Day Weather Forecast

Advertisements
Track Severe Weather on mobile